sensor_id;sensor_type;location;lat;lon;timestamp;P1;durP1;ratioP1;P2;durP2;ratioP2
53652;SDS011;39553;52.954;5.932;2022-12-18T00:00:47;100.80;;;36.47;;
53652;SDS011;39553;52.954;5.932;2022-12-18T00:03:14;88.10;;;33.88;;
53652;SDS011;39553;52.954;5.932;2022-12-18T00:05:49;88.03;;;32.28;;
53652;SDS011;39553;52.954;5.932;2022-12-18T00:08:16;99.40;;;36.95;;
53652;SDS011;39553;52.954;5.932;2022-12-18T00:10:43;103.20;;;34.78;;
53652;SDS011;39553;52.954;5.932;2022-12-18T00:13:09;87.90;;;30.75;;
53652;SDS011;39553;52.954;5.932;2022-12-18T00:15:36;92.75;;;32.83;;
53652;SDS011;39553;52.954;5.932;2022-12-18T00:18:03;78.22;;;28.58;;
53652;SDS011;39553;52.954;5.932;2022-12-18T00:20:29;86.40;;;32.30;;
53652;SDS011;39553;52.954;5.932;2022-12-18T00:22:55;85.78;;;27.58;;
53652;SDS011;39553;52.954;5.932;2022-12-18T00:25:21;97.28;;;33.63;;
53652;SDS011;39553;52.954;5.932;2022-12-18T00:27:49;87.47;;;31.88;;
53652;SDS011;39553;52.954;5.932;2022-12-18T00:30:14;105.60;;;33.88;;
53652;SDS011;39553;52.954;5.932;2022-12-18T00:32:40;83.13;;;30.52;;
53652;SDS011;39553;52.954;5.932;2022-12-18T00:35:06;100.30;;;32.10;;
53652;SDS011;39553;52.954;5.932;2022-12-18T00:37:35;89.32;;;33.83;;
53652;SDS011;39553;52.954;5.932;2022-12-18T00:40:01;91.60;;;33.97;;
53652;SDS011;39553;52.954;5.932;2022-12-18T00:42:28;96.57;;;34.72;;
53652;SDS011;39553;52.954;5.932;2022-12-18T00:45:12;95.53;;;33.65;;
53652;SDS011;39553;52.954;5.932;2022-12-18T00:47:39;102.80;;;35.10;;
53652;SDS011;39553;52.954;5.932;2022-12-18T00:50:06;94.63;;;33.65;;
53652;SDS011;39553;52.954;5.932;2022-12-18T00:52:32;94.30;;;34.20;;
53652;SDS011;39553;52.954;5.932;2022-12-18T00:54:58;97.53;;;36.08;;
53652;SDS011;39553;52.954;5.932;2022-12-18T00:57:24;96.65;;;33.33;;
53652;SDS011;39553;52.954;5.932;2022-12-18T00:59:49;118.90;;;35.97;;
53652;SDS011;39553;52.954;5.932;2022-12-18T01:02:15;76.03;;;26.13;;
53652;SDS011;39553;52.954;5.932;2022-12-18T01:04:41;96.45;;;33.53;;
53652;SDS011;39553;52.954;5.932;2022-12-18T01:07:06;98.30;;;34.53;;
53652;SDS011;39553;52.954;5.932;2022-12-18T01:09:32;85.65;;;30.85;;
53652;SDS011;39553;52.954;5.932;2022-12-18T01:11:58;96.43;;;33.08;;
53652;SDS011;39553;52.954;5.932;2022-12-18T01:14:23;92.55;;;33.08;;
53652;SDS011;39553;52.954;5.932;2022-12-18T01:16:51;92.18;;;31.55;;
53652;SDS011;39553;52.954;5.932;2022-12-18T01:19:16;102.68;;;37.03;;
53652;SDS011;39553;52.954;5.932;2022-12-18T01:21:42;95.72;;;34.20;;
53652;SDS011;39553;52.954;5.932;2022-12-18T01:24:09;96.07;;;31.75;;
53652;SDS011;39553;52.954;5.932;2022-12-18T01:26:36;94.82;;;33.58;;
53652;SDS011;39553;52.954;5.932;2022-12-18T01:29:02;99.43;;;32.85;;
53652;SDS011;39553;52.954;5.932;2022-12-18T01:31:29;99.18;;;33.55;;
53652;SDS011;39553;52.954;5.932;2022-12-18T01:33:57;95.80;;;32.85;;
53652;SDS011;39553;52.954;5.932;2022-12-18T01:36:29;98.88;;;32.22;;
53652;SDS011;39553;52.954;5.932;2022-12-18T01:38:59;86.95;;;29.13;;
53652;SDS011;39553;52.954;5.932;2022-12-18T01:41:27;89.05;;;30.77;;
53652;SDS011;39553;52.954;5.932;2022-12-18T01:49:52;88.80;;;30.65;;
53652;SDS011;39553;52.954;5.932;2022-12-18T01:52:19;92.97;;;31.55;;
53652;SDS011;39553;52.954;5.932;2022-12-18T01:54:47;93.47;;;30.33;;
53652;SDS011;39553;52.954;5.932;2022-12-18T01:57:15;95.45;;;32.53;;
53652;SDS011;39553;52.954;5.932;2022-12-18T01:59:41;93.05;;;31.10;;
53652;SDS011;39553;52.954;5.932;2022-12-18T02:02:10;93.60;;;32.20;;
53652;SDS011;39553;52.954;5.932;2022-12-18T02:04:36;97.30;;;32.10;;
53652;SDS011;39553;52.954;5.932;2022-12-18T02:09:38;89.53;;;32.07;;
53652;SDS011;39553;52.954;5.932;2022-12-18T02:14:44;97.13;;;31.98;;
53652;SDS011;39553;52.954;5.932;2022-12-18T02:17:30;98.72;;;33.63;;
53652;SDS011;39553;52.954;5.932;2022-12-18T02:25:55;105.22;;;30.40;;
53652;SDS011;39553;52.954;5.932;2022-12-18T02:28:41;99.07;;;32.63;;
53652;SDS011;39553;52.954;5.932;2022-12-18T02:31:11;101.93;;;33.88;;
53652;SDS011;39553;52.954;5.932;2022-12-18T02:33:41;94.32;;;30.63;;
53652;SDS011;39553;52.954;5.932;2022-12-18T02:36:10;100.47;;;33.63;;
53652;SDS011;39553;52.954;5.932;2022-12-18T02:38:40;92.85;;;33.55;;
53652;SDS011;39553;52.954;5.932;2022-12-18T02:41:08;110.43;;;36.10;;
53652;SDS011;39553;52.954;5.932;2022-12-18T02:43:33;102.50;;;34.08;;
53652;SDS011;39553;52.954;5.932;2022-12-18T02:46:00;111.05;;;34.83;;
53652;SDS011;39553;52.954;5.932;2022-12-18T02:48:45;99.38;;;34.35;;
53652;SDS011;39553;52.954;5.932;2022-12-18T02:51:24;96.00;;;36.58;;
53652;SDS011;39553;52.954;5.932;2022-12-18T02:53:58;102.90;;;35.83;;
53652;SDS011;39553;52.954;5.932;2022-12-18T02:56:35;118.20;;;37.58;;
53652;SDS011;39553;52.954;5.932;2022-12-18T02:59:13;111.38;;;36.95;;
53652;SDS011;39553;52.954;5.932;2022-12-18T03:04:35;117.47;;;37.60;;
53652;SDS011;39553;52.954;5.932;2022-12-18T03:07:11;109.65;;;37.05;;
53652;SDS011;39553;52.954;5.932;2022-12-18T03:09:42;108.07;;;36.95;;
53652;SDS011;39553;52.954;5.932;2022-12-18T03:12:15;98.78;;;33.35;;
53652;SDS011;39553;52.954;5.932;2022-12-18T03:15:03;100.90;;;35.10;;
53652;SDS011;39553;52.954;5.932;2022-12-18T03:17:30;117.93;;;34.95;;
53652;SDS011;39553;52.954;5.932;2022-12-18T03:19:59;103.53;;;35.28;;
53652;SDS011;39553;52.954;5.932;2022-12-18T03:22:30;108.78;;;35.28;;
53652;SDS011;39553;52.954;5.932;2022-12-18T03:24:58;116.32;;;38.60;;
53652;SDS011;39553;52.954;5.932;2022-12-18T03:27:28;113.75;;;35.50;;
53652;SDS011;39553;52.954;5.932;2022-12-18T03:30:01;100.25;;;35.10;;
53652;SDS011;39553;52.954;5.932;2022-12-18T03:32:38;101.40;;;37.58;;
53652;SDS011;39553;52.954;5.932;2022-12-18T03:35:10;106.45;;;34.58;;
53652;SDS011;39553;52.954;5.932;2022-12-18T03:37:39;100.07;;;33.80;;
53652;SDS011;39553;52.954;5.932;2022-12-18T03:40:05;96.25;;;32.33;;
53652;SDS011;39553;52.954;5.932;2022-12-18T03:56:16;90.88;;;32.40;;
53652;SDS011;39553;52.954;5.932;2022-12-18T03:58:46;88.90;;;30.67;;
53652;SDS011;39553;52.954;5.932;2022-12-18T04:01:14;104.03;;;33.55;;
53652;SDS011;39553;52.954;5.932;2022-12-18T04:03:43;91.30;;;32.63;;
53652;SDS011;39553;52.954;5.932;2022-12-18T04:06:12;98.68;;;31.80;;
53652;SDS011;39553;52.954;5.932;2022-12-18T04:08:41;95.57;;;33.15;;
53652;SDS011;39553;52.954;5.932;2022-12-18T04:11:07;98.03;;;33.50;;
53652;SDS011;39553;52.954;5.932;2022-12-18T04:13:37;100.97;;;32.10;;
53652;SDS011;39553;52.954;5.932;2022-12-18T04:16:03;96.57;;;31.42;;
53652;SDS011;39553;52.954;5.932;2022-12-18T04:18:29;93.85;;;33.20;;
53652;SDS011;39553;52.954;5.932;2022-12-18T04:20:55;75.82;;;29.23;;
53652;SDS011;39553;52.954;5.932;2022-12-18T04:23:21;92.68;;;32.47;;
53652;SDS011;39553;52.954;5.932;2022-12-18T04:25:47;84.93;;;33.38;;
53652;SDS011;39553;52.954;5.932;2022-12-18T04:28:13;82.45;;;31.77;;
53652;SDS011;39553;52.954;5.932;2022-12-18T04:30:39;88.68;;;29.27;;
53652;SDS011;39553;52.954;5.932;2022-12-18T04:33:11;82.57;;;27.20;;
53652;SDS011;39553;52.954;5.932;2022-12-18T04:35:41;84.97;;;29.85;;
53652;SDS011;39553;52.954;5.932;2022-12-18T04:38:07;71.90;;;27.15;;
53652;SDS011;39553;52.954;5.932;2022-12-18T04:40:36;83.50;;;29.70;;
53652;SDS011;39553;52.954;5.932;2022-12-18T04:43:03;75.18;;;27.88;;
53652;SDS011;39553;52.954;5.932;2022-12-18T04:45:29;86.97;;;29.85;;
53652;SDS011;39553;52.954;5.932;2022-12-18T04:47:59;76.55;;;28.48;;
53652;SDS011;39553;52.954;5.932;2022-12-18T04:50:26;70.63;;;28.77;;
53652;SDS011;39553;52.954;5.932;2022-12-18T04:52:52;79.32;;;30.00;;
53652;SDS011;39553;52.954;5.932;2022-12-18T04:55:18;80.25;;;28.52;;
53652;SDS011;39553;52.954;5.932;2022-12-18T04:57:44;75.70;;;28.17;;
53652;SDS011;39553;52.954;5.932;2022-12-18T05:00:10;79.78;;;28.13;;
53652;SDS011;39553;52.954;5.932;2022-12-18T05:02:36;74.78;;;28.42;;
53652;SDS011;39553;52.954;5.932;2022-12-18T05:05:02;73.45;;;26.60;;
53652;SDS011;39553;52.954;5.932;2022-12-18T05:07:28;73.68;;;27.08;;
53652;SDS011;39553;52.954;5.932;2022-12-18T05:09:54;73.22;;;27.08;;
53652;SDS011;39553;52.954;5.932;2022-12-18T05:12:19;61.30;;;24.67;;
53652;SDS011;39553;52.954;5.932;2022-12-18T05:14:45;77.55;;;25.90;;
53652;SDS011;39553;52.954;5.932;2022-12-18T05:17:11;70.13;;;25.58;;
53652;SDS011;39553;52.954;5.932;2022-12-18T05:19:37;74.05;;;26.95;;
53652;SDS011;39553;52.954;5.932;2022-12-18T05:22:02;68.25;;;26.45;;
53652;SDS011;39553;52.954;5.932;2022-12-18T05:24:28;70.85;;;26.17;;
53652;SDS011;39553;52.954;5.932;2022-12-18T05:26:54;63.03;;;24.27;;
53652;SDS011;39553;52.954;5.932;2022-12-18T05:29:20;65.30;;;26.55;;
53652;SDS011;39553;52.954;5.932;2022-12-18T05:31:46;69.68;;;26.83;;
53652;SDS011;39553;52.954;5.932;2022-12-18T05:34:11;64.82;;;24.85;;
53652;SDS011;39553;52.954;5.932;2022-12-18T05:36:37;66.55;;;25.15;;
53652;SDS011;39553;52.954;5.932;2022-12-18T05:39:03;63.58;;;23.73;;
53652;SDS011;39553;52.954;5.932;2022-12-18T05:41:28;57.15;;;24.23;;
53652;SDS011;39553;52.954;5.932;2022-12-18T05:43:54;59.10;;;24.17;;
53652;SDS011;39553;52.954;5.932;2022-12-18T05:46:20;69.45;;;25.40;;
53652;SDS011;39553;52.954;5.932;2022-12-18T05:48:46;63.38;;;24.20;;
53652;SDS011;39553;52.954;5.932;2022-12-18T05:51:14;67.18;;;25.08;;
53652;SDS011;39553;52.954;5.932;2022-12-18T05:53:41;61.75;;;24.33;;
53652;SDS011;39553;52.954;5.932;2022-12-18T05:56:09;55.38;;;23.40;;
53652;SDS011;39553;52.954;5.932;2022-12-18T05:58:40;66.40;;;23.98;;
53652;SDS011;39553;52.954;5.932;2022-12-18T06:01:08;70.38;;;24.42;;
53652;SDS011;39553;52.954;5.932;2022-12-18T06:03:38;68.88;;;20.80;;
53652;SDS011;39553;52.954;5.932;2022-12-18T06:06:12;64.07;;;24.73;;
53652;SDS011;39553;52.954;5.932;2022-12-18T06:08:48;64.43;;;22.00;;
53652;SDS011;39553;52.954;5.932;2022-12-18T06:11:22;60.20;;;22.65;;
53652;SDS011;39553;52.954;5.932;2022-12-18T06:13:49;66.25;;;21.88;;
53652;SDS011;39553;52.954;5.932;2022-12-18T06:16:16;66.70;;;24.23;;
53652;SDS011;39553;52.954;5.932;2022-12-18T06:18:42;64.78;;;24.27;;
53652;SDS011;39553;52.954;5.932;2022-12-18T06:21:08;60.45;;;23.67;;
53652;SDS011;39553;52.954;5.932;2022-12-18T06:23:33;62.75;;;21.08;;
53652;SDS011;39553;52.954;5.932;2022-12-18T06:26:03;52.50;;;21.00;;
53652;SDS011;39553;52.954;5.932;2022-12-18T06:28:30;54.33;;;21.50;;
53652;SDS011;39553;52.954;5.932;2022-12-18T06:30:56;58.47;;;23.35;;
53652;SDS011;39553;52.954;5.932;2022-12-18T06:33:22;53.08;;;22.10;;
53652;SDS011;39553;52.954;5.932;2022-12-18T06:35:52;59.15;;;23.05;;
53652;SDS011;39553;52.954;5.932;2022-12-18T06:38:17;63.33;;;23.42;;
53652;SDS011;39553;52.954;5.932;2022-12-18T06:40:43;47.20;;;22.02;;
53652;SDS011;39553;52.954;5.932;2022-12-18T06:43:10;51.60;;;21.15;;
53652;SDS011;39553;52.954;5.932;2022-12-18T06:45:36;62.25;;;21.33;;
53652;SDS011;39553;52.954;5.932;2022-12-18T06:48:02;56.40;;;21.10;;
53652;SDS011;39553;52.954;5.932;2022-12-18T06:50:28;47.22;;;20.95;;
53652;SDS011;39553;52.954;5.932;2022-12-18T06:52:53;60.65;;;22.95;;
53652;SDS011;39553;52.954;5.932;2022-12-18T06:55:20;50.72;;;20.10;;
53652;SDS011;39553;52.954;5.932;2022-12-18T06:57:47;48.35;;;19.45;;
53652;SDS011;39553;52.954;5.932;2022-12-18T07:00:13;49.40;;;19.75;;
53652;SDS011;39553;52.954;5.932;2022-12-18T07:02:39;38.65;;;16.55;;
53652;SDS011;39553;52.954;5.932;2022-12-18T07:05:05;46.22;;;19.25;;
53652;SDS011;39553;52.954;5.932;2022-12-18T07:07:32;45.45;;;19.50;;
53652;SDS011;39553;52.954;5.932;2022-12-18T07:09:59;50.00;;;20.00;;
53652;SDS011;39553;52.954;5.932;2022-12-18T07:12:26;47.70;;;19.50;;
53652;SDS011;39553;52.954;5.932;2022-12-18T07:14:52;42.10;;;17.58;;
53652;SDS011;39553;52.954;5.932;2022-12-18T07:17:18;42.25;;;20.27;;
53652;SDS011;39553;52.954;5.932;2022-12-18T07:19:43;50.03;;;21.30;;
53652;SDS011;39553;52.954;5.932;2022-12-18T07:22:09;51.10;;;18.88;;
53652;SDS011;39553;52.954;5.932;2022-12-18T07:24:35;46.03;;;19.30;;
53652;SDS011;39553;52.954;5.932;2022-12-18T07:27:01;49.95;;;19.50;;
53652;SDS011;39553;52.954;5.932;2022-12-18T07:29:27;48.50;;;19.73;;
53652;SDS011;39553;52.954;5.932;2022-12-18T07:31:53;40.03;;;17.42;;
53652;SDS011;39553;52.954;5.932;2022-12-18T07:34:19;47.03;;;18.00;;
53652;SDS011;39553;52.954;5.932;2022-12-18T07:36:44;37.95;;;17.05;;
53652;SDS011;39553;52.954;5.932;2022-12-18T07:39:10;41.55;;;20.05;;
53652;SDS011;39553;52.954;5.932;2022-12-18T07:41:36;42.55;;;19.20;;
53652;SDS011;39553;52.954;5.932;2022-12-18T07:44:02;43.15;;;17.95;;
53652;SDS011;39553;52.954;5.932;2022-12-18T07:46:28;36.58;;;16.27;;
53652;SDS011;39553;52.954;5.932;2022-12-18T07:48:54;39.67;;;16.73;;
53652;SDS011;39553;52.954;5.932;2022-12-18T07:51:19;43.30;;;17.83;;
53652;SDS011;39553;52.954;5.932;2022-12-18T07:53:45;39.00;;;17.27;;
53652;SDS011;39553;52.954;5.932;2022-12-18T07:56:11;40.65;;;17.98;;
53652;SDS011;39553;52.954;5.932;2022-12-18T07:58:38;38.70;;;15.40;;
53652;SDS011;39553;52.954;5.932;2022-12-18T08:01:08;46.15;;;17.52;;
53652;SDS011;39553;52.954;5.932;2022-12-18T08:03:36;36.30;;;17.13;;
53652;SDS011;39553;52.954;5.932;2022-12-18T08:06:03;36.08;;;16.88;;
53652;SDS011;39553;52.954;5.932;2022-12-18T08:08:30;42.67;;;17.83;;
53652;SDS011;39553;52.954;5.932;2022-12-18T08:10:56;32.78;;;16.35;;
53652;SDS011;39553;52.954;5.932;2022-12-18T08:13:22;34.97;;;17.23;;
53652;SDS011;39553;52.954;5.932;2022-12-18T08:15:58;41.47;;;16.70;;
53652;SDS011;39553;52.954;5.932;2022-12-18T08:18:27;36.40;;;14.75;;
53652;SDS011;39553;52.954;5.932;2022-12-18T08:20:53;33.65;;;17.20;;
53652;SDS011;39553;52.954;5.932;2022-12-18T08:23:19;34.63;;;15.85;;
53652;SDS011;39553;52.954;5.932;2022-12-18T08:25:45;29.05;;;13.48;;
53652;SDS011;39553;52.954;5.932;2022-12-18T08:28:11;31.45;;;15.57;;
53652;SDS011;39553;52.954;5.932;2022-12-18T08:30:37;31.15;;;15.38;;
53652;SDS011;39553;52.954;5.932;2022-12-18T08:33:02;34.70;;;13.88;;
53652;SDS011;39553;52.954;5.932;2022-12-18T08:35:28;35.05;;;15.13;;
53652;SDS011;39553;52.954;5.932;2022-12-18T08:37:54;32.67;;;14.00;;
53652;SDS011;39553;52.954;5.932;2022-12-18T08:40:20;30.77;;;14.27;;
53652;SDS011;39553;52.954;5.932;2022-12-18T08:42:45;29.15;;;14.68;;
53652;SDS011;39553;52.954;5.932;2022-12-18T08:45:30;29.30;;;13.07;;
53652;SDS011;39553;52.954;5.932;2022-12-18T08:47:55;34.35;;;15.75;;
53652;SDS011;39553;52.954;5.932;2022-12-18T08:50:21;35.78;;;15.57;;
53652;SDS011;39553;52.954;5.932;2022-12-18T08:52:47;29.52;;;14.13;;
53652;SDS011;39553;52.954;5.932;2022-12-18T08:55:13;32.65;;;14.40;;
53652;SDS011;39553;52.954;5.932;2022-12-18T08:57:38;29.73;;;14.32;;
53652;SDS011;39553;52.954;5.932;2022-12-18T09:00:04;35.80;;;15.50;;
53652;SDS011;39553;52.954;5.932;2022-12-18T09:02:31;30.95;;;14.45;;
53652;SDS011;39553;52.954;5.932;2022-12-18T09:04:59;43.40;;;16.85;;
53652;SDS011;39553;52.954;5.932;2022-12-18T09:07:26;32.97;;;14.00;;
53652;SDS011;39553;52.954;5.932;2022-12-18T09:09:51;26.85;;;12.20;;
53652;SDS011;39553;52.954;5.932;2022-12-18T09:12:17;27.02;;;11.70;;
53652;SDS011;39553;52.954;5.932;2022-12-18T09:14:43;29.50;;;11.77;;
53652;SDS011;39553;52.954;5.932;2022-12-18T09:17:09;24.42;;;9.95;;
53652;SDS011;39553;52.954;5.932;2022-12-18T09:19:34;23.70;;;11.00;;
53652;SDS011;39553;52.954;5.932;2022-12-18T09:22:00;25.25;;;11.73;;
53652;SDS011;39553;52.954;5.932;2022-12-18T09:24:26;26.25;;;11.88;;
53652;SDS011;39553;52.954;5.932;2022-12-18T09:26:55;26.70;;;11.80;;
53652;SDS011;39553;52.954;5.932;2022-12-18T09:29:20;22.73;;;10.98;;
53652;SDS011;39553;52.954;5.932;2022-12-18T09:31:46;20.63;;;10.40;;
53652;SDS011;39553;52.954;5.932;2022-12-18T09:34:12;26.00;;;12.38;;
53652;SDS011;39553;52.954;5.932;2022-12-18T09:36:41;23.58;;;12.10;;
53652;SDS011;39553;52.954;5.932;2022-12-18T09:39:07;20.42;;;11.57;;
53652;SDS011;39553;52.954;5.932;2022-12-18T09:46:52;23.05;;;11.75;;
53652;SDS011;39553;52.954;5.932;2022-12-18T09:49:22;21.08;;;10.32;;
53652;SDS011;39553;52.954;5.932;2022-12-18T09:51:56;21.98;;;9.88;;
53652;SDS011;39553;52.954;5.932;2022-12-18T09:54:56;17.15;;;8.57;;
53652;SDS011;39553;52.954;5.932;2022-12-18T09:57:51;19.40;;;9.90;;
53652;SDS011;39553;52.954;5.932;2022-12-18T10:00:21;18.40;;;8.77;;
53652;SDS011;39553;52.954;5.932;2022-12-18T10:02:48;12.90;;;6.97;;
53652;SDS011;39553;52.954;5.932;2022-12-18T10:05:17;17.40;;;8.75;;
53652;SDS011;39553;52.954;5.932;2022-12-18T10:10:47;18.00;;;9.50;;
53652;SDS011;39553;52.954;5.932;2022-12-18T10:16:03;23.75;;;10.35;;
53652;SDS011;39553;52.954;5.932;2022-12-18T10:26:42;16.85;;;9.35;;
53652;SDS011;39553;52.954;5.932;2022-12-18T10:29:12;15.85;;;8.52;;
53652;SDS011;39553;52.954;5.932;2022-12-18T10:31:39;18.90;;;8.98;;
53652;SDS011;39553;52.954;5.932;2022-12-18T10:34:09;14.38;;;8.88;;
53652;SDS011;39553;52.954;5.932;2022-12-18T10:36:36;15.23;;;8.27;;
53652;SDS011;39553;52.954;5.932;2022-12-18T10:39:24;19.95;;;10.18;;
53652;SDS011;39553;52.954;5.932;2022-12-18T10:41:51;16.63;;;9.27;;
53652;SDS011;39553;52.954;5.932;2022-12-18T10:44:33;16.80;;;8.95;;
53652;SDS011;39553;52.954;5.932;2022-12-18T10:47:03;19.15;;;8.05;;
53652;SDS011;39553;52.954;5.932;2022-12-18T10:49:32;18.55;;;8.73;;
53652;SDS011;39553;52.954;5.932;2022-12-18T10:52:17;15.85;;;9.00;;
53652;SDS011;39553;52.954;5.932;2022-12-18T10:54:59;18.40;;;8.50;;
53652;SDS011;39553;52.954;5.932;2022-12-18T10:57:29;18.83;;;9.73;;
53652;SDS011;39553;52.954;5.932;2022-12-18T10:59:58;14.45;;;8.52;;
53652;SDS011;39553;52.954;5.932;2022-12-18T11:02:44;13.70;;;8.77;;
53652;SDS011;39553;52.954;5.932;2022-12-18T11:07:54;19.27;;;8.23;;
53652;SDS011;39553;52.954;5.932;2022-12-18T11:10:22;12.68;;;7.07;;
53652;SDS011;39553;52.954;5.932;2022-12-18T11:12:53;14.18;;;9.27;;
53652;SDS011;39553;52.954;5.932;2022-12-18T11:15:21;14.48;;;8.18;;
53652;SDS011;39553;52.954;5.932;2022-12-18T11:17:55;11.73;;;6.78;;
53652;SDS011;39553;52.954;5.932;2022-12-18T11:20:42;17.90;;;8.00;;
53652;SDS011;39553;52.954;5.932;2022-12-18T11:23:11;12.15;;;7.68;;
53652;SDS011;39553;52.954;5.932;2022-12-18T11:25:38;15.82;;;8.15;;
53652;SDS011;39553;52.954;5.932;2022-12-18T11:28:05;15.23;;;7.15;;
53652;SDS011;39553;52.954;5.932;2022-12-18T11:30:54;18.63;;;8.13;;
53652;SDS011;39553;52.954;5.932;2022-12-18T11:36:24;11.07;;;6.25;;
53652;SDS011;39553;52.954;5.932;2022-12-18T11:38:55;12.30;;;6.35;;
53652;SDS011;39553;52.954;5.932;2022-12-18T11:41:35;14.82;;;6.05;;
53652;SDS011;39553;52.954;5.932;2022-12-18T11:44:32;12.98;;;6.93;;
53652;SDS011;39553;52.954;5.932;2022-12-18T11:47:09;13.07;;;6.18;;
53652;SDS011;39553;52.954;5.932;2022-12-18T11:49:50;12.60;;;6.32;;
53652;SDS011;39553;52.954;5.932;2022-12-18T11:52:22;12.70;;;6.68;;
53652;SDS011;39553;52.954;5.932;2022-12-18T11:55:11;11.00;;;5.95;;
53652;SDS011;39553;52.954;5.932;2022-12-18T12:00:21;10.43;;;6.47;;
53652;SDS011;39553;52.954;5.932;2022-12-18T12:05:36;12.05;;;7.22;;
53652;SDS011;39553;52.954;5.932;2022-12-18T12:16:22;11.38;;;5.60;;
53652;SDS011;39553;52.954;5.932;2022-12-18T12:21:48;13.00;;;6.43;;
53652;SDS011;39553;52.954;5.932;2022-12-18T12:30:32;12.48;;;6.13;;
53652;SDS011;39553;52.954;5.932;2022-12-18T12:36:00;13.50;;;7.30;;
53652;SDS011;39553;52.954;5.932;2022-12-18T12:38:59;10.68;;;6.40;;
53652;SDS011;39553;52.954;5.932;2022-12-18T12:41:31;12.95;;;6.40;;
53652;SDS011;39553;52.954;5.932;2022-12-18T12:44:19;12.38;;;7.25;;
53652;SDS011;39553;52.954;5.932;2022-12-18T12:46:51;9.40;;;5.90;;
53652;SDS011;39553;52.954;5.932;2022-12-18T12:49:20;12.10;;;6.38;;
53652;SDS011;39553;52.954;5.932;2022-12-18T12:51:53;13.93;;;6.90;;
53652;SDS011;39553;52.954;5.932;2022-12-18T12:54:31;13.45;;;6.25;;
53652;SDS011;39553;52.954;5.932;2022-12-18T12:57:09;11.95;;;6.32;;
53652;SDS011;39553;52.954;5.932;2022-12-18T13:10:46;12.30;;;6.13;;
53652;SDS011;39553;52.954;5.932;2022-12-18T13:13:15;9.88;;;5.30;;
53652;SDS011;39553;52.954;5.932;2022-12-18T13:15:45;12.38;;;6.20;;
53652;SDS011;39553;52.954;5.932;2022-12-18T13:18:17;11.77;;;7.05;;
53652;SDS011;39553;52.954;5.932;2022-12-18T13:21:02;11.05;;;6.85;;
53652;SDS011;39553;52.954;5.932;2022-12-18T13:23:41;12.98;;;7.00;;
53652;SDS011;39553;52.954;5.932;2022-12-18T13:31:13;10.00;;;6.57;;
53652;SDS011;39553;52.954;5.932;2022-12-18T13:33:57;11.15;;;6.70;;
53652;SDS011;39553;52.954;5.932;2022-12-18T13:36:43;14.43;;;6.45;;
53652;SDS011;39553;52.954;5.932;2022-12-18T13:41:45;9.57;;;6.15;;
53652;SDS011;39553;52.954;5.932;2022-12-18T13:47:05;11.25;;;6.07;;
53652;SDS011;39553;52.954;5.932;2022-12-18T13:50:09;12.23;;;6.55;;
53652;SDS011;39553;52.954;5.932;2022-12-18T13:52:47;12.48;;;6.38;;
53652;SDS011;39553;52.954;5.932;2022-12-18T13:55:17;9.10;;;5.47;;
53652;SDS011;39553;52.954;5.932;2022-12-18T13:57:45;11.27;;;6.25;;
53652;SDS011;39553;52.954;5.932;2022-12-18T14:00:16;10.95;;;6.05;;
53652;SDS011;39553;52.954;5.932;2022-12-18T14:02:45;10.70;;;5.07;;
53652;SDS011;39553;52.954;5.932;2022-12-18T14:05:27;10.60;;;6.00;;
53652;SDS011;39553;52.954;5.932;2022-12-18T14:07:55;10.55;;;5.72;;
53652;SDS011;39553;52.954;5.932;2022-12-18T14:10:26;10.38;;;5.80;;
53652;SDS011;39553;52.954;5.932;2022-12-18T14:12:52;8.93;;;5.93;;
53652;SDS011;39553;52.954;5.932;2022-12-18T14:17:55;10.13;;;5.38;;
53652;SDS011;39553;52.954;5.932;2022-12-18T14:20:24;19.95;;;7.05;;
53652;SDS011;39553;52.954;5.932;2022-12-18T14:22:52;11.00;;;5.60;;
53652;SDS011;39553;52.954;5.932;2022-12-18T14:25:19;11.50;;;5.57;;
53652;SDS011;39553;52.954;5.932;2022-12-18T14:27:49;9.85;;;5.70;;
53652;SDS011;39553;52.954;5.932;2022-12-18T14:30:45;7.85;;;4.90;;
53652;SDS011;39553;52.954;5.932;2022-12-18T14:33:19;8.63;;;5.78;;
53652;SDS011;39553;52.954;5.932;2022-12-18T14:35:54;10.10;;;5.20;;
53652;SDS011;39553;52.954;5.932;2022-12-18T14:38:27;11.70;;;5.10;;
53652;SDS011;39553;52.954;5.932;2022-12-18T14:41:06;9.27;;;5.07;;
53652;SDS011;39553;52.954;5.932;2022-12-18T14:43:37;9.65;;;4.90;;
53652;SDS011;39553;52.954;5.932;2022-12-18T14:46:05;9.15;;;4.80;;
53652;SDS011;39553;52.954;5.932;2022-12-18T14:48:50;10.63;;;4.93;;
53652;SDS011;39553;52.954;5.932;2022-12-18T14:51:20;13.40;;;5.40;;
53652;SDS011;39553;52.954;5.932;2022-12-18T14:53:49;10.25;;;4.95;;
53652;SDS011;39553;52.954;5.932;2022-12-18T14:56:22;11.32;;;5.80;;
53652;SDS011;39553;52.954;5.932;2022-12-18T14:58:56;8.35;;;4.57;;
53652;SDS011;39553;52.954;5.932;2022-12-18T15:01:28;9.18;;;5.78;;
53652;SDS011;39553;52.954;5.932;2022-12-18T15:03:55;10.93;;;5.13;;
53652;SDS011;39553;52.954;5.932;2022-12-18T15:06:24;9.88;;;4.85;;
53652;SDS011;39553;52.954;5.932;2022-12-18T15:08:51;8.93;;;4.47;;
53652;SDS011;39553;52.954;5.932;2022-12-18T15:11:24;8.20;;;4.55;;
53652;SDS011;39553;52.954;5.932;2022-12-18T15:14:30;9.73;;;5.03;;
53652;SDS011;39553;52.954;5.932;2022-12-18T15:16:57;8.57;;;5.03;;
53652;SDS011;39553;52.954;5.932;2022-12-18T15:19:35;8.27;;;4.50;;
53652;SDS011;39553;52.954;5.932;2022-12-18T15:22:14;11.77;;;5.03;;
53652;SDS011;39553;52.954;5.932;2022-12-18T15:24:48;13.45;;;5.78;;
53652;SDS011;39553;52.954;5.932;2022-12-18T15:27:31;9.02;;;5.05;;
53652;SDS011;39553;52.954;5.932;2022-12-18T15:37:38;11.80;;;5.20;;
53652;SDS011;39553;52.954;5.932;2022-12-18T15:40:04;7.88;;;4.47;;
53652;SDS011;39553;52.954;5.932;2022-12-18T15:42:30;8.57;;;4.70;;
53652;SDS011;39553;52.954;5.932;2022-12-18T15:45:15;8.50;;;4.97;;
53652;SDS011;39553;52.954;5.932;2022-12-18T15:47:41;10.75;;;5.38;;
53652;SDS011;39553;52.954;5.932;2022-12-18T15:50:07;8.40;;;4.78;;
53652;SDS011;39553;52.954;5.932;2022-12-18T15:52:36;9.77;;;4.78;;
53652;SDS011;39553;52.954;5.932;2022-12-18T15:55:16;10.52;;;4.50;;
53652;SDS011;39553;52.954;5.932;2022-12-18T15:58:03;11.65;;;4.60;;
53652;SDS011;39553;52.954;5.932;2022-12-18T16:00:31;9.13;;;5.35;;
53652;SDS011;39553;52.954;5.932;2022-12-18T16:02:59;8.73;;;5.55;;
53652;SDS011;39553;52.954;5.932;2022-12-18T16:05:24;14.07;;;8.60;;
53652;SDS011;39553;52.954;5.932;2022-12-18T16:07:52;11.27;;;6.18;;
53652;SDS011;39553;52.954;5.932;2022-12-18T16:10:18;11.52;;;5.78;;
53652;SDS011;39553;52.954;5.932;2022-12-18T16:12:44;15.63;;;6.78;;
53652;SDS011;39553;52.954;5.932;2022-12-18T16:15:12;7.30;;;4.68;;
53652;SDS011;39553;52.954;5.932;2022-12-18T16:17:39;18.00;;;10.10;;
53652;SDS011;39553;52.954;5.932;2022-12-18T16:20:07;12.65;;;7.03;;
53652;SDS011;39553;52.954;5.932;2022-12-18T16:22:40;9.85;;;5.03;;
53652;SDS011;39553;52.954;5.932;2022-12-18T16:25:20;9.90;;;5.45;;
53652;SDS011;39553;52.954;5.932;2022-12-18T16:27:53;8.30;;;5.32;;
53652;SDS011;39553;52.954;5.932;2022-12-18T16:30:21;8.88;;;5.10;;
53652;SDS011;39553;52.954;5.932;2022-12-18T16:32:48;9.57;;;4.93;;
53652;SDS011;39553;52.954;5.932;2022-12-18T16:35:15;10.68;;;5.25;;
53652;SDS011;39553;52.954;5.932;2022-12-18T16:37:42;9.68;;;5.78;;